Flight Track Log - Related Links

Times and Time Zones

All times are in EDT time to prevent confusion due to time zone crossing. See the ASQ4209 flight status page for this flight to view local times or setup timezone preferences in your user account.


Time Position Orientation Groundspeed Altitude Reporting Facility
EDT Latitude Longitude Course Direction KTS MPH feet Rate Location/Type
Thu 10:09:24 PM 29.9783 -95.2958 27° Northeast 153 176 800  Level Houston Center
Thu 10:10:19 PM 30.0147 -95.2575 42° Northeast 220 253 2,400 1,748 Climbing Houston Center
Thu 10:11:07 PM 30.0572 -95.2336 26° Northeast 246 283 3,800 2,092 Climbing Houston Center
Thu 10:12:00 PM 30.2968 -95.2033 14° North  Level FlightAware Approximate
Thu 10:12:08 PM 30.1281 -95.1944 26° Northeast 279 321 6,200  Level Houston Center
Thu 10:13:00 PM 30.4031 -95.1651 23° Northeast  Level FlightAware Approximate
Thu 10:13:09 PM 30.2083 -95.1836 North 288 331 9,200  Level Houston Center
Thu 10:14:00 PM 30.5032 -95.1081 27° Northeast  Level FlightAware Approximate
Thu 10:14:10 PM 30.2847 -95.1764 North 278 320 11,100  Level Houston Center
Thu 10:15:11 PM 30.3714 -95.1692 North 308 354 12,600 1,328 Climbing Houston Center
Thu 10:16:12 PM 30.4681 -95.1506 North 351 404 13,800 1,279 Climbing Houston Center
Thu 10:17:13 PM 30.5603 -95.0939 28° Northeast 375 432 15,200 1,770 Climbing Houston Center
Thu 10:18:14 PM 30.6697 -95.0250 28° Northeast 374 430 17,400 1,820 Climbing Houston Center
Thu 10:19:15 PM 30.7625 -94.9681 28° Northeast 376 433 18,900 1,475 Climbing Houston Center
Thu 10:20:16 PM 30.8544 -94.9100 28° Northeast 377 434 20,400 1,525 Climbing Houston Center
Thu 10:21:17 PM 30.9464 -94.8525 28° Northeast 378 435 22,000 1,462 Climbing Houston Center
Thu 10:21:34 PM 30.9639 -94.8406 30° Northeast 376 433 22,300 1,481 Climbing Fort Worth Center
Thu 10:22:34 PM 31.0567 -94.7847 27° Northeast 371 427 23,900 1,750 Climbing Fort Worth Center
Thu 10:23:34 PM 31.1575 -94.7214 28° Northeast 375 432 25,800 1,650 Climbing Fort Worth Center
Thu 10:24:34 PM 31.2481 -94.6603 30° Northeast 375 432 27,200 1,200 Climbing Fort Worth Center
Thu 10:25:34 PM 31.3428 -94.5967 30° Northeast 375 432 28,200 1,000 Climbing Fort Worth Center
Thu 10:26:34 PM 31.4372 -94.5281 32° Northeast 383 441 29,200 1,000 Climbing Fort Worth Center
Thu 10:27:34 PM 31.5336 -94.4617 30° Northeast 394 453 30,200 1,050 Climbing Fort Worth Center
Thu 10:28:34 PM 31.6322 -94.3928 31° Northeast 399 459 31,300 1,050 Climbing Fort Worth Center
Thu 10:29:34 PM 31.7328 -94.3211 31° Northeast 406 467 32,300 850 Climbing Fort Worth Center
Thu 10:30:34 PM 31.8356 -94.2517 30° Northeast 412 474 33,000 350 Climbing Fort Worth Center
Thu 10:31:34 PM 31.9422 -94.1744 32° Northeast 423 487 33,000  Level Fort Worth Center
Thu 10:32:34 PM 32.0550 -94.0969 30° Northeast 445 512 33,000  Level Fort Worth Center
Thu 10:33:34 PM 32.1656 -94.0169 31° Northeast 458 527 33,000  Level Fort Worth Center
Thu 10:34:34 PM 32.2550 -93.9350 38° Northeast 458 527 33,000  Level Fort Worth Center
Thu 10:35:34 PM 32.3225 -93.8022 59° Northeast 447 514 33,000 350 Level Fort Worth Center
Thu 10:36:34 PM 32.3322 -93.6419 86° East 447 514 33,700 850 Climbing Fort Worth Center
Thu 10:37:34 PM 32.3378 -93.4819 88° East 456 525 34,700 650 Climbing Fort Worth Center
Thu 10:38:34 PM 32.3453 -93.3242 87° East 467 537 35,000 150 Climbing Fort Worth Center
Thu 10:39:34 PM 32.3525 -93.1642 87° East 478 550 35,000  Level Fort Worth Center
Thu 10:40:34 PM 32.3597 -93.0064 87° East 478 550 35,000  Level Fort Worth Center
Thu 10:41:34 PM 32.3667 -92.8486 87° East 478 550 35,000  Level Fort Worth Center
Thu 10:42:34 PM 32.3753 -92.6883 86° East 485 558 35,000  Level Fort Worth Center
Thu 10:43:34 PM 32.3817 -92.5306 87° East 485 558 35,000  Level Fort Worth Center
Thu 10:44:34 PM 32.3878 -92.3656 87° East 485 558 35,000  Level Fort Worth Center
Thu 10:45:34 PM 32.3961 -92.2100 86° East 485 558 35,000  Level Fort Worth Center
Thu 10:47:20 PM 32.4097 -91.9125 87° East 475 547 35,000  Level Memphis Center
Thu 10:48:20 PM 32.4219 -91.7600 85° East 475 547 35,000  Level Memphis Center
Thu 10:49:20 PM 32.4486 -91.6081 78° East 475 547 35,000  Level Memphis Center
Thu 10:50:20 PM 32.4792 -91.4581 76° East 469 540 35,000  Level Memphis Center
Thu 10:51:20 PM 32.5158 -91.3131 73° East 462 532 35,000  Level Memphis Center
Thu 10:52:20 PM 32.5753 -91.1783 62° Northeast 453 521 35,000  Level Memphis Center
Thu 10:53:20 PM 32.6408 -91.0481 59° Northeast 453 521 35,000  Level Memphis Center
Thu 10:54:20 PM 32.7083 -90.9153 59° Northeast 458 527 35,000  Level Memphis Center
Thu 10:55:20 PM 32.7736 -90.7847 59° Northeast 463 533 35,000  Level Memphis Center
Thu 10:56:20 PM 32.8406 -90.6539 59° Northeast 468 539 35,000  Level Memphis Center
Thu 10:57:20 PM 32.9056 -90.5181 60° Northeast 468 539 35,000  Level Memphis Center
Thu 10:58:20 PM 32.9725 -90.3844 59° Northeast 468 539 35,000  Level Memphis Center
Thu 10:59:20 PM 33.0392 -90.2506 59° Northeast 468 539 35,000  Level Memphis Center
Thu 11:00:20 PM 33.1081 -90.1167 58° Northeast 468 539 35,000  Level Memphis Center
Thu 11:01:20 PM 33.1744 -89.9775 60° Northeast 468 539 35,000  Level Memphis Center
Thu 11:02:20 PM 33.2428 -89.8406 59° Northeast 468 539 35,000  Level Memphis Center
Thu 11:03:20 PM 33.3111 -89.7011 60° Northeast 468 539 35,000  Level Memphis Center
Thu 11:04:20 PM 33.3750 -89.5661 60° Northeast 468 539 35,000 -400 Level Memphis Center
Thu 11:05:20 PM 33.4386 -89.4336 60° Northeast 463 533 34,200 -1,100 Descending Memphis Center
Thu 11:06:20 PM 33.5025 -89.3033 60° Northeast 463 533 32,800 -1,400 Descending Memphis Center
Thu 11:07:20 PM 33.5639 -89.1756 60° Northeast 452 520 31,400 -1,400 Descending Memphis Center
Thu 11:08:20 PM 33.6253 -89.0425 61° Northeast 447 514 30,000 -1,200 Descending Memphis Center
Thu 11:09:20 PM 33.6925 -88.9017 60° Northeast 458 527 29,000 -500 Descending Memphis Center
Thu 11:10:20 PM 33.7556 -88.7656 61° Northeast 463 533 29,000  Level Memphis Center
Thu 11:11:20 PM 33.8183 -88.6294 61° Northeast 463 533 29,000  Level Memphis Center
Thu 11:12:20 PM 33.8831 -88.4931 60° Northeast 463 533 29,000  Level Memphis Center
Thu 11:13:20 PM 33.9478 -88.3564 60° Northeast 463 533 29,000  Level Memphis Center
Thu 11:14:20 PM 34.0122 -88.2197 60° Northeast 463 533 29,000  Level Memphis Center
Thu 11:15:20 PM 34.0767 -88.0778 61° Northeast 475 547 29,000  Level Memphis Center
Thu 11:16:20 PM 34.1428 -87.9353 61° Northeast 468 539 29,000  Level Memphis Center
Thu 11:17:20 PM 34.2069 -87.8031 60° Northeast 463 533 29,000  Level Memphis Center
Thu 11:18:20 PM 34.2686 -87.6653 62° Northeast 463 533 29,000  Level Memphis Center
Thu 11:19:20 PM 34.3222 -87.5431 62° Northeast 463 533 29,000  Level Memphis Center
Thu 11:21:08 PM 34.4425 -87.2806 61° Northeast 469 540 29,000  Level Atlanta Center
Thu 11:22:08 PM 34.5042 -87.1467 61° Northeast 464 534 29,000  Level Atlanta Center
Thu 11:23:08 PM 34.5661 -87.0078 62° Northeast 464 534 29,000  Level Atlanta Center
Thu 11:24:08 PM 34.6300 -86.8711 60° Northeast 464 534 29,000  Level Atlanta Center
Thu 11:25:08 PM 34.6914 -86.7317 62° Northeast 464 534 29,000  Level Atlanta Center
Thu 11:26:08 PM 34.7528 -86.5947 61° Northeast 464 534 29,000 -500 Level Atlanta Center
Thu 11:27:08 PM 34.8142 -86.4575 61° Northeast 464 534 28,000 -1,250 Descending Atlanta Center
Thu 11:28:08 PM 34.8750 -86.3175 62° Northeast 464 534 26,500 -1,500 Descending Atlanta Center
Thu 11:29:08 PM 34.9361 -86.1772 62° Northeast 469 540 25,000 -1,000 Descending Atlanta Center
Thu 11:30:44 PM 35.0317 -85.9564 62° Northeast 444 511 23,900 -962 Descending Atlanta Center
Thu 11:31:44 PM 35.0919 -85.8208 61° Northeast 444 511 22,500 -1,250 Descending Atlanta Center
Thu 11:32:44 PM 35.1481 -85.6872 63° Northeast 444 511 21,400 -750 Descending Atlanta Center
Thu 11:33:44 PM 35.2039 -85.5589 62° Northeast 444 511 21,000 -200 Descending Atlanta Center
Thu 11:34:44 PM 35.2619 -85.4275 62° Northeast 439 505 21,000  Level Atlanta Center
Thu 11:35:44 PM 35.3175 -85.2961 63° Northeast 434 499 21,000 -350 Level Atlanta Center
Thu 11:36:44 PM 35.3708 -85.1669 63° Northeast 429 494 20,300 -1,350 Descending Atlanta Center
Thu 11:37:44 PM 35.4264 -85.0378 62° Northeast 429 494 18,300 -1,900 Descending Atlanta Center
Thu 11:38:44 PM 35.4817 -84.9111 62° Northeast 429 494 16,500 -1,900 Descending Atlanta Center
Thu 11:39:44 PM 35.5325 -84.7917 62° Northeast 424 488 14,500 -2,000 Descending Atlanta Center
Thu 11:40:44 PM 35.5831 -84.6694 63° Northeast 409 471 12,500 -1,650 Descending Atlanta Center
Thu 11:41:44 PM 35.6275 -84.5625 63° Northeast 378 435 11,200 -1,300 Descending Atlanta Center
Thu 11:42:44 PM 35.6694 -84.4656 62° Northeast 337 388 9,900 -1,550 Descending Atlanta Center
Thu 11:43:44 PM 35.7053 -84.3789 63° Northeast 302 348 8,100 -1,450 Descending Atlanta Center
Thu 11:44:44 PM 35.7408 -84.2947 62° Northeast 286 329 7,000 -550 Descending Atlanta Center
Thu 11:45:44 PM 35.7869 -84.2231 52° Northeast 274 315 7,000 -500 Level Atlanta Center
Thu 11:46:44 PM 35.8475 -84.1617 39° Northeast 264 304 6,000 -1,000 Descending Atlanta Center
Thu 11:47:44 PM 35.8936 -84.0900 52° Northeast 264 304 5,000 -950 Descending Atlanta Center
Thu 11:48:44 PM 35.9353 -84.0106 57° Northeast 269 310 4,100 -900 Descending Atlanta Center

Login

Don't have an account? Register now (free) for customized features, flight alerts, and more!